Glorieta, NM (87535)

3:31 PM MDT on September 02, 2014 (GMT -0600)
Dos Griegos | Change Station
CLOSE
Current Station
Personal Weather Station
Location: Santa Fe, NM
Elevation: 7087 ft
Nearby Weather Stations

Elev 7087 ft 35.55 °N, 105.89 °W | Updated 8 seconds ago

Clear
Clear
85.9 °F
Feels Like 83 °F
N
2.0
Wind Variable Wind from SW
Gusts 6.0 mph

Today
High -- | Low -- °F
--% Chance of Precip.
Yesterday
High -- | Low -- °F
Precip. -- in
6:36 AM 7:28 PM
First Quarter, 55% visible
Pressure 29.81 in
Visibility 10.0 miles
Clouds Clear
Heat Index 83 °F
Dew Point 29 °F
Humidity 13%
Rainfall 0.00 in
Snow Depth 0 in , 0 in
UV 4.2 out of 12
Pollen 8.70 out of 12
Air Quality Not available.
Flu Activity Not available.
METAR KSAF 022053Z 21009G16KT 10SM CLR 31/M02 A3014 RMK AO2 SLP092 T03061017 56019

More Conditions Fewer Conditions

Pressure 29.81 in
Visibility 10.0 miles
Clouds Clear
Heat Index 83 °F
Dew Point 29 °F
Humidity 13%
Rainfall 0.00 in
Snow Depth 0 in , 0 in
UV 4.2 out of 12
Pollen 8.70 out of 12
Air Quality Not available.
Flu Activity Not available.
METAR KSAF 022053Z 21009G16KT 10SM CLR 31/M02 A3014 RMK AO2 SLP092 T03061017 56019

More Conditions Fewer Conditions

10-Day Weather Forecast

Almanac

Astronomy

Sep. 02, 2014 Rise Set
Actual Time 6:36 AM MDT 7:28 PM MDT
Civil Twilight 6:10 AM MDT 7:54 PM MDT
Nautical Twilight 5:39 AM MDT 8:25 PM MDT
Astronomical Twilight 5:07 AM MDT 8:57 PM MDT
Moon 2:08 PM MDT No Moon Set
Length of Visible Light 13h 44m
Length of Day
12h 52m
Tomorrow will be 2m 9s shorter.
First Quarter, 55% of the Moon is Illuminated
Today
First Quarter
Sep 8
Full
Sep 15
Last Quarter
Sep 24
New
Oct 1
First Quarter

Today's Extremes

State Highs State Lows

Community

WunderPhotos

Upload Photos

1,749,776 photos uploaded!

Nearby

Snow Depth

Station Depth Elevation
Santa Fe 0 in 11445 ft
Wesner Springs 0 in 11120 ft
Sierra Blanca 0 in 10280 ft
Silver Creek Divide 17 in 9000 ft

Earthquake Activity

City Distance Mag. Time & Date
Trinidad, Colorado 113 miles 2.7 4:20 AM MDT
2014-08-31
Minimum magnitude displayed is 2.5.

Coastal Water Temperatures

Place Temperature
No Stations Reporting

Nearby Weather Stations